createdAt,value
2022-11-07T00:02:17.011Z,101406.09
2022-11-07T00:04:47.977Z,101420.47
2022-11-07T00:07:17.332Z,101411.78
2022-11-07T00:09:47.634Z,101415.94
2022-11-07T00:12:18.236Z,101413.00
2022-11-07T00:14:46.644Z,101407.38
2022-11-07T00:17:15.963Z,101405.47
2022-11-07T00:19:44.337Z,101406.91
2022-11-07T00:22:16.158Z,101405.94
2022-11-07T00:24:44.651Z,101405.84
2022-11-07T00:27:14.146Z,101396.19
2022-11-07T00:29:42.893Z,101397.44
2022-11-07T00:32:11.255Z,101395.91
2022-11-07T00:34:40.677Z,101390.50
2022-11-07T00:37:09.114Z,101402.53
2022-11-07T00:39:39.113Z,101418.34
2022-11-07T00:42:07.490Z,101410.97
2022-11-07T00:44:35.892Z,101420.78
2022-11-07T00:47:04.199Z,101416.75
2022-11-07T00:49:32.480Z,101427.19
2022-11-07T00:52:00.751Z,101434.00
2022-11-07T00:54:28.981Z,101427.63
2022-11-07T00:56:58.696Z,101434.56
2022-11-07T00:59:27.052Z,101407.28
2022-11-07T01:01:55.430Z,101440.53
2022-11-07T01:04:41.140Z,101444.69
2022-11-07T01:07:10.518Z,101442.97
2022-11-07T01:09:38.837Z,101435.97
2022-11-07T01:12:08.772Z,101433.06
2022-11-07T01:14:37.292Z,101439.25
2022-11-07T01:17:05.758Z,101432.75
2022-11-07T01:19:34.254Z,101445.25
2022-11-07T01:22:02.725Z,101449.34
2022-11-07T01:24:31.118Z,101445.28
2022-11-07T01:26:59.825Z,101442.72
2022-11-07T01:29:29.966Z,101443.16
2022-11-07T01:31:58.544Z,101440.78
2022-11-07T01:34:27.303Z,101437.19
2022-11-07T01:36:55.728Z,101450.88
2022-11-07T01:39:24.121Z,101451.44
2022-11-07T01:41:52.632Z,101445.47
2022-11-07T01:44:59.416Z,101448.97
2022-11-07T01:48:34.958Z,101442.22
2022-11-07T01:51:05.762Z,101444.41
2022-11-07T01:53:36.407Z,101438.56
2022-11-07T01:56:11.025Z,101435.16
2022-11-07T01:58:41.771Z,101428.50
2022-11-07T02:01:13.753Z,101427.09
2022-11-07T02:03:44.344Z,101432.19
2022-11-07T02:06:26.911Z,101399.72
2022-11-07T02:08:58.565Z,101419.13
2022-11-07T02:11:28.985Z,101433.25
2022-11-07T02:13:59.462Z,101444.38
2022-11-07T02:16:33.414Z,101441.38
2022-11-07T02:19:09.056Z,101444.13
2022-11-07T02:21:48.096Z,101438.91
2022-11-07T02:24:29.432Z,101430.78
2022-11-07T02:27:02.804Z,101428.69
2022-11-07T02:29:41.278Z,101425.84
2022-11-07T02:32:14.658Z,101405.63
2022-11-07T02:34:43.452Z,101419.91
2022-11-07T02:37:20.134Z,101423.31
2022-11-07T02:39:56.178Z,101422.56
2022-11-07T02:42:43.829Z,101426.78
2022-11-07T02:45:23.810Z,101410.34
2022-11-07T02:47:55.991Z,101421.03
2022-11-07T02:50:28.888Z,101419.31
2022-11-07T02:53:01.448Z,101414.97
2022-11-07T02:55:37.380Z,101408.91
2022-11-07T02:58:07.760Z,101361.59
2022-11-07T03:00:37.636Z,101404.78
2022-11-07T03:03:14.379Z,101403.69
2022-11-07T03:05:52.620Z,101398.47
2022-11-07T03:08:35.414Z,101391.13
2022-11-07T03:11:10.405Z,101390.16
2022-11-07T03:13:38.895Z,101387.84
2022-11-07T03:16:14.012Z,101393.09
2022-11-07T03:18:48.375Z,101393.09
2022-11-07T03:21:19.660Z,101389.84
2022-11-07T03:23:57.860Z,101386.84
2022-11-07T03:26:31.280Z,101396.84
2022-11-07T03:29:15.232Z,101392.84
2022-11-07T03:32:16.221Z,101393.03
2022-11-07T03:35:01.981Z,101389.84
2022-11-07T03:37:39.717Z,101388.13
2022-11-07T03:40:13.795Z,101381.13
2022-11-07T03:42:49.326Z,101385.31
2022-11-07T03:45:19.771Z,101381.97
2022-11-07T03:47:53.423Z,101395.97
2022-11-07T03:50:30.781Z,101388.03
2022-11-07T03:53:03.664Z,101397.03
2022-11-07T03:55:35.568Z,101379.19
2022-11-07T03:58:22.313Z,101390.09
2022-11-07T04:00:59.963Z,101386.78
2022-11-07T04:04:13.182Z,101394.72
2022-11-07T04:06:50.611Z,101399.63
2022-11-07T04:09:20.336Z,101397.06
2022-11-07T04:12:07.333Z,101401.31
2022-11-07T04:14:55.144Z,101404.81
2022-11-07T04:17:25.316Z,101407.66
2022-11-07T04:19:58.058Z,101403.13
2022-11-07T04:22:29.919Z,101411.56
2022-11-07T04:25:01.865Z,101403.72
2022-11-07T04:27:50.630Z,101410.88
2022-11-07T04:30:29.693Z,101413.44
2022-11-07T04:34:18.267Z,101413.63
2022-11-07T04:36:43.518Z,101413.44
2022-11-07T04:39:13.601Z,101410.00
2022-11-07T04:42:22.144Z,101420.19
2022-11-07T04:44:59.749Z,101414.38
2022-11-07T04:47:34.186Z,101411.81
2022-11-07T04:54:43.788Z,101425.25
2022-11-07T04:57:16.453Z,101421.09
2022-11-07T04:59:46.264Z,101426.38
2022-11-07T05:02:15.213Z,101430.31
2022-11-07T05:04:45.973Z,101427.50
2022-11-07T05:07:15.302Z,101424.41
2022-11-07T05:09:51.549Z,101433.22
2022-11-07T05:12:20.856Z,101428.03
2022-11-07T05:14:52.984Z,101431.41
2022-11-07T05:17:26.854Z,101422.47
2022-11-07T05:19:58.000Z,101425.88
2022-11-07T05:22:44.351Z,101437.06
2022-11-07T05:25:12.652Z,101419.81
2022-11-07T05:28:02.425Z,101423.91
2022-11-07T05:30:33.666Z,101427.31
2022-11-07T05:33:09.659Z,101421.94
2022-11-07T05:35:39.931Z,101419.47
2022-11-07T05:38:08.753Z,101417.09
2022-11-07T05:40:38.269Z,101425.88
2022-11-07T05:43:08.909Z,101428.44
2022-11-07T05:45:38.759Z,101426.38
2022-11-07T05:48:08.866Z,101420.94
2022-11-07T05:50:37.932Z,101421.00
2022-11-07T05:53:08.472Z,101426.31
2022-11-07T05:55:37.096Z,101420.59
2022-11-07T05:58:11.259Z,101427.59
2022-11-07T06:00:39.716Z,101424.16
2022-11-07T06:03:08.332Z,101428.69
2022-11-07T06:05:38.144Z,101433.50
2022-11-07T06:08:09.378Z,101419.41
2022-11-07T06:10:38.008Z,101419.41
2022-11-07T06:13:08.171Z,101427.94
2022-11-07T06:15:38.412Z,101433.41
2022-11-07T06:18:09.469Z,101439.81
2022-11-07T06:20:38.040Z,101441.69
2022-11-07T06:23:08.176Z,101420.53
2022-11-07T06:25:37.457Z,101412.59
2022-11-07T06:28:07.845Z,101428.78
2022-11-07T06:30:36.814Z,101434.91
2022-11-07T06:33:06.176Z,101435.88
2022-11-07T06:35:35.555Z,101434.19
2022-11-07T06:38:04.661Z,101440.22
2022-11-07T06:40:34.705Z,101414.63
2022-11-07T06:43:09.333Z,101444.06
2022-11-07T06:45:38.163Z,101450.47
2022-11-07T06:48:07.236Z,101443.38
2022-11-07T06:50:36.029Z,101448.75
2022-11-07T06:53:04.889Z,101452.19
2022-11-07T06:55:35.435Z,101451.16
2022-11-07T06:58:06.703Z,101450.31
2022-11-07T07:00:37.072Z,101453.03
2022-11-07T07:03:05.910Z,101453.44
2022-11-07T07:05:34.616Z,101454.97
2022-11-07T07:08:03.157Z,101457.38
2022-11-07T07:10:31.766Z,101463.00
2022-11-07T07:13:02.267Z,101460.78
2022-11-07T07:15:47.513Z,101458.53
2022-11-07T07:18:18.916Z,101462.38
2022-11-07T07:20:47.616Z,101464.19
2022-11-07T07:23:16.121Z,101476.59
2022-11-07T07:25:44.715Z,101479.91
2022-11-07T07:28:14.704Z,101477.56
2022-11-07T07:30:47.166Z,101479.03
2022-11-07T07:33:19.243Z,101487.56
2022-11-07T07:35:47.579Z,101483.84
2022-11-07T07:38:15.794Z,101494.66
2022-11-07T07:40:44.051Z,101486.59
2022-11-07T07:43:12.552Z,101484.47
2022-11-07T07:45:42.423Z,101490.19
2022-11-07T07:48:10.655Z,101488.28
2022-11-07T07:50:38.952Z,101488.88
2022-11-07T07:53:09.207Z,101493.28
2022-11-07T07:55:37.755Z,101488.31
2022-11-07T07:58:06.069Z,101489.97
2022-11-07T08:00:34.395Z,101490.81
2022-11-07T08:03:05.435Z,101494.28
2022-11-07T08:05:33.794Z,101495.25
2022-11-07T08:08:02.330Z,101496.81
2022-11-07T08:10:45.901Z,101486.44
2022-11-07T08:13:14.423Z,101489.75
2022-11-07T08:15:42.962Z,101504.75
2022-11-07T08:18:12.657Z,101502.25
2022-11-07T08:20:40.958Z,101501.00
2022-11-07T08:23:16.132Z,101507.56
2022-11-07T08:25:49.749Z,101506.31
2022-11-07T08:28:18.282Z,101503.75
2022-11-07T08:30:47.522Z,101507.88
2022-11-07T08:33:17.956Z,101505.38
2022-11-07T08:35:46.621Z,101505.69
2022-11-07T08:38:14.867Z,101515.63
2022-11-07T08:40:43.222Z,101508.19
2022-11-07T08:43:11.474Z,101500.81
2022-11-07T08:45:39.745Z,101503.94
2022-11-07T08:48:08.204Z,101505.56
2022-11-07T08:50:37.927Z,101494.56
2022-11-07T08:53:06.329Z,101500.38
2022-11-07T08:55:34.643Z,101499.69
2022-11-07T08:58:04.617Z,101497.00
2022-11-07T09:00:34.469Z,101489.66
2022-11-07T09:05:55.002Z,101471.84
2022-11-07T09:08:23.813Z,101496.53
2022-11-07T09:10:52.477Z,101493.84
2022-11-07T09:13:21.504Z,101496.75
2022-11-07T09:15:51.845Z,101496.19
2022-11-07T09:18:21.152Z,101487.59
2022-11-07T09:20:49.923Z,101488.88
2022-11-07T09:23:20.565Z,101479.69
2022-11-07T09:25:49.647Z,101476.44
2022-11-07T09:28:18.427Z,101472.50
2022-11-07T09:30:47.242Z,101483.66
2022-11-07T09:33:16.113Z,101481.13
2022-11-07T09:35:45.031Z,101479.56
2022-11-07T09:38:14.713Z,101482.97
2022-11-07T09:40:54.655Z,101490.84
2022-11-07T09:43:35.689Z,101483.06
2022-11-07T09:46:18.412Z,101488.00
2022-11-07T09:48:52.513Z,101492.25
2022-11-07T09:51:28.834Z,101491.81
2022-11-07T09:54:01.618Z,101495.91
2022-11-07T09:56:34.436Z,101496.16
2022-11-07T09:59:13.784Z,101498.97
2022-11-07T10:01:43.412Z,101497.41
2022-11-07T10:04:24.655Z,101492.72
2022-11-07T10:06:58.966Z,101492.72
2022-11-07T10:09:38.185Z,101489.84
2022-11-07T10:12:19.465Z,101489.09
2022-11-07T10:14:59.520Z,101477.75
2022-11-07T10:17:35.772Z,101485.78
2022-11-07T10:20:12.987Z,101474.13
2022-11-07T10:23:00.435Z,101481.72
2022-11-07T10:25:36.885Z,101477.59
2022-11-07T10:28:20.210Z,101475.00
2022-11-07T10:30:52.257Z,101467.88
2022-11-07T10:33:38.706Z,101462.56
2022-11-07T10:36:18.580Z,101456.66
2022-11-07T10:38:47.565Z,101453.75
2022-11-07T10:41:18.229Z,101453.38
2022-11-07T10:43:53.346Z,101449.41
2022-11-07T10:46:27.022Z,101443.94
2022-11-07T10:48:58.205Z,101327.59
2022-11-07T10:51:38.382Z,101429.94
2022-11-07T10:54:07.623Z,101425.13
2022-11-07T10:56:46.925Z,101425.84
2022-11-07T10:59:30.131Z,101424.88
2022-11-07T11:02:02.922Z,101423.09
2022-11-07T11:04:34.021Z,101401.84
2022-11-07T11:07:04.912Z,101417.47
2022-11-07T11:09:35.806Z,101423.56
2022-11-07T11:12:12.996Z,101383.94
2022-11-07T11:14:43.507Z,101415.34
2022-11-07T11:17:25.787Z,101415.38
2022-11-07T11:19:55.683Z,101409.97
2022-11-07T11:22:29.296Z,101398.88
2022-11-07T11:25:05.141Z,101290.38
2022-11-07T11:27:36.421Z,101400.22
2022-11-07T11:30:08.889Z,101397.50
2022-11-07T11:32:42.530Z,101397.00
2022-11-07T11:35:25.968Z,101391.28
2022-11-07T11:38:00.527Z,101394.53
2022-11-07T11:40:34.187Z,101389.47
2022-11-07T11:43:15.909Z,101393.16
2022-11-07T11:46:00.625Z,101380.31
2022-11-07T11:48:35.556Z,101368.16
2022-11-07T11:51:08.018Z,101370.19
2022-11-07T11:53:36.760Z,101360.38
2022-11-07T11:56:24.762Z,101364.06
2022-11-07T11:59:03.181Z,101359.00
2022-11-07T12:01:40.889Z,101352.56
2022-11-07T12:04:34.422Z,101354.94
2022-11-07T12:07:12.275Z,101348.69
2022-11-07T12:09:47.210Z,101342.09
2022-11-07T12:12:27.649Z,101333.81
2022-11-07T12:15:19.398Z,101344.28
2022-11-07T12:17:55.066Z,101332.63
2022-11-07T12:20:28.336Z,101332.28
2022-11-07T12:23:13.715Z,101331.25
2022-11-07T12:25:47.621Z,101319.44
2022-11-07T12:28:32.256Z,101322.81
2022-11-07T12:31:14.130Z,101323.66
2022-11-07T12:33:50.676Z,101315.38
2022-11-07T12:36:34.279Z,101316.22
2022-11-07T12:39:36.799Z,101323.31
2022-11-07T12:42:09.787Z,101319.88
2022-11-07T12:44:56.190Z,101317.31
2022-11-07T12:47:41.217Z,101315.78
2022-11-07T12:50:29.816Z,101251.06
2022-11-07T12:53:17.321Z,101308.81
2022-11-07T12:55:50.497Z,101316.59
2022-11-07T12:58:23.689Z,101314.19
2022-11-07T13:00:53.521Z,101312.81
2022-11-07T13:03:50.718Z,101306.41
2022-11-07T13:06:28.889Z,101299.13
2022-11-07T13:09:08.307Z,101302.84
2022-11-07T13:11:46.480Z,101300.16
2022-11-07T13:14:24.833Z,101156.00
2022-11-07T13:17:06.089Z,101260.38
2022-11-07T13:19:36.313Z,101284.13
2022-11-07T13:22:08.483Z,101279.22
2022-11-07T13:24:51.360Z,101290.88
2022-11-07T13:27:24.537Z,101284.13
2022-11-07T13:29:53.630Z,101281.78
2022-11-07T13:32:22.338Z,101277.03
2022-11-07T13:34:57.164Z,101273.31
2022-11-07T13:37:29.639Z,101264.53
2022-11-07T13:40:03.290Z,101266.94
2022-11-07T13:42:35.114Z,101261.97
2022-11-07T13:45:19.389Z,101260.78
2022-11-07T13:47:49.186Z,101273.28
2022-11-07T13:50:23.192Z,101270.03
2022-11-07T13:53:00.598Z,101258.03
2022-11-07T13:55:35.743Z,101256.81
2022-11-07T13:58:11.443Z,101254.78
2022-11-07T14:00:40.409Z,101255.16
2022-11-07T14:03:24.151Z,101254.31
2022-11-07T14:05:53.174Z,101252.13
2022-11-07T14:08:27.170Z,101258.03
2022-11-07T14:10:55.908Z,101254.31
2022-11-07T14:13:29.027Z,101249.56
2022-11-07T14:16:00.791Z,101244.16
2022-11-07T14:18:32.900Z,101243.31
2022-11-07T14:21:01.519Z,101244.69
2022-11-07T14:23:33.849Z,101244.03
2022-11-07T14:26:03.772Z,101251.47
2022-11-07T14:28:36.169Z,101250.81
2022-11-07T14:31:15.052Z,101249.97
2022-11-07T14:33:49.978Z,101242.22
2022-11-07T14:36:19.496Z,101239.00
2022-11-07T14:38:50.810Z,101242.59
2022-11-07T14:41:19.856Z,101206.19
2022-11-07T14:43:49.032Z,101238.84
2022-11-07T14:46:20.544Z,101240.53
2022-11-07T14:48:51.507Z,101241.91
2022-11-07T14:51:24.520Z,101245.78
2022-11-07T14:54:00.689Z,101245.66
2022-11-07T14:56:33.037Z,101244.09
2022-11-07T14:59:01.743Z,101257.38
2022-11-07T15:01:32.490Z,101248.81
2022-11-07T15:04:02.768Z,101250.53
2022-11-07T15:06:34.526Z,101251.91
2022-11-07T15:09:07.287Z,101248.72
2022-11-07T15:11:37.287Z,101245.03
2022-11-07T15:14:08.136Z,101246.59
2022-11-07T15:16:40.198Z,101246.44
2022-11-07T15:19:11.164Z,101242.91
2022-11-07T15:21:52.080Z,101247.81
2022-11-07T15:24:34.409Z,101249.56
2022-11-07T15:27:04.239Z,101260.38
2022-11-07T15:29:34.134Z,101257.47
2022-11-07T15:32:07.810Z,101264.41
2022-11-07T15:34:58.631Z,101265.28
2022-11-07T15:37:26.951Z,101267.16
2022-11-07T15:39:56.572Z,101264.09
2022-11-07T15:42:24.849Z,101256.69
2022-11-07T15:44:53.023Z,101255.53
2022-11-07T15:47:23.549Z,101264.47
2022-11-07T15:49:52.104Z,101268.00
2022-11-07T15:52:20.317Z,101266.16
2022-11-07T15:54:48.547Z,101260.59
2022-11-07T15:57:18.989Z,101256.72
2022-11-07T15:59:47.363Z,101261.41
2022-11-07T16:02:18.228Z,101264.09
2022-11-07T16:04:46.552Z,101264.91
2022-11-07T16:07:18.698Z,101272.81
2022-11-07T16:09:48.925Z,101264.53
2022-11-07T16:12:19.808Z,101255.41
2022-11-07T16:14:48.030Z,101255.72
2022-11-07T16:17:18.239Z,101252.00
2022-11-07T16:19:46.667Z,101255.84
2022-11-07T16:22:16.393Z,101249.38
2022-11-07T16:24:44.543Z,101250.84
2022-11-07T16:27:17.345Z,101238.28
2022-11-07T16:29:47.354Z,101258.44
2022-11-07T16:32:18.495Z,101260.56
2022-11-07T16:34:47.808Z,101251.19
2022-11-07T16:37:16.399Z,101258.69
2022-11-07T16:39:44.665Z,101262.09
2022-11-07T16:42:15.914Z,101252.91
2022-11-07T16:44:44.222Z,101264.41
2022-11-07T16:47:17.067Z,101265.44
2022-11-07T16:49:45.299Z,101271.41
2022-11-07T16:52:16.198Z,101244.38
2022-11-07T16:54:44.443Z,101256.41
2022-11-07T16:57:13.616Z,101242.25
2022-11-07T16:59:41.992Z,101283.44
2022-11-07T17:02:21.150Z,101288.72
2022-11-07T17:04:50.962Z,101289.06
2022-11-07T17:07:22.755Z,101298.31
2022-11-07T17:09:51.678Z,101304.09
2022-11-07T17:12:21.843Z,101287.06
2022-11-07T17:14:51.047Z,101296.66
2022-11-07T17:17:21.062Z,101298.38
2022-11-07T17:19:49.357Z,101299.22
2022-11-07T17:22:17.883Z,101304.00
2022-11-07T17:24:47.344Z,101295.25
2022-11-07T17:27:21.914Z,101298.47
2022-11-07T17:29:50.515Z,101301.16
2022-11-07T17:32:20.133Z,101298.63
2022-11-07T17:35:10.690Z,101298.34
2022-11-07T17:37:38.316Z,101298.19
2022-11-07T17:40:07.539Z,101302.56
2022-11-07T17:42:38.301Z,101307.34
2022-11-07T17:45:07.901Z,101303.66
2022-11-07T17:47:37.456Z,101305.03
2022-11-07T17:50:06.146Z,101306.72
2022-11-07T17:52:34.524Z,101310.78
2022-11-07T17:55:02.748Z,101318.25
2022-11-07T17:57:30.933Z,101319.34
2022-11-07T17:59:59.171Z,101318.19
2022-11-07T18:02:27.521Z,101321.81
2022-11-07T18:04:57.447Z,101325.63
2022-11-07T18:07:25.693Z,101314.34
2022-11-07T18:09:54.915Z,101320.34
2022-11-07T18:12:23.476Z,101312.72
2022-11-07T18:14:51.694Z,101322.81
2022-11-07T18:17:20.851Z,101311.94
2022-11-07T18:19:49.468Z,101311.94
2022-11-07T18:22:19.041Z,101311.59
2022-11-07T18:24:47.640Z,101314.09
2022-11-07T18:27:16.049Z,101313.38
2022-11-07T18:29:44.424Z,101314.03
2022-11-07T18:32:13.997Z,101279.94
2022-11-07T18:34:43.462Z,101321.13
2022-11-07T18:37:11.704Z,101326.88
2022-11-07T18:39:41.509Z,101333.69
2022-11-07T18:42:09.714Z,101336.63
2022-11-07T18:44:38.082Z,101323.09
2022-11-07T18:47:06.416Z,101326.25
2022-11-07T18:49:34.645Z,101338.81
2022-11-07T18:52:02.837Z,101325.63
2022-11-07T18:54:31.051Z,101319.16
2022-11-07T18:57:00.696Z,101328.66
2022-11-07T18:59:29.061Z,101323.69
2022-11-07T19:01:57.264Z,101331.84
2022-11-07T19:04:25.513Z,101331.78
2022-11-07T19:06:59.504Z,101314.19
2022-11-07T19:09:29.543Z,101330.59
2022-11-07T19:11:59.028Z,101320.66
2022-11-07T19:14:29.828Z,101322.63
2022-11-07T19:16:58.757Z,101325.19
2022-11-07T19:19:26.936Z,101315.22
2022-11-07T19:21:55.151Z,101324.22
2022-11-07T19:24:23.397Z,101321.28
2022-11-07T19:26:51.668Z,101317.91
2022-11-07T19:29:20.035Z,101319.66
2022-11-07T19:31:49.709Z,101317.09
2022-11-07T19:34:18.203Z,101318.00
2022-11-07T19:36:46.454Z,101321.28
2022-11-07T19:39:14.646Z,101321.50
2022-11-07T19:41:43.000Z,101314.94
2022-11-07T19:44:11.822Z,101318.81
2022-11-07T19:46:40.107Z,101310.69
2022-11-07T19:49:09.806Z,101316.16
2022-11-07T19:51:38.006Z,101321.16
2022-11-07T19:54:07.665Z,101323.44
2022-11-07T19:56:35.869Z,101329.38
2022-11-07T19:59:04.168Z,101326.69
2022-11-07T20:01:34.167Z,101322.22
2022-11-07T20:04:03.614Z,101323.06
2022-11-07T20:06:36.570Z,101328.88
2022-11-07T20:09:07.312Z,101330.47
2022-11-07T20:11:35.769Z,101330.47
2022-11-07T20:14:04.422Z,101333.75
2022-11-07T20:16:33.746Z,101338.47
2022-11-07T20:19:02.312Z,101326.69
2022-11-07T20:21:33.849Z,101290.16
2022-11-07T20:24:02.131Z,101344.84
2022-11-07T20:26:32.127Z,101312.25
2022-11-07T20:29:00.738Z,101342.41
2022-11-07T20:31:32.794Z,101348.09
2022-11-07T20:34:03.742Z,101301.66
2022-11-07T20:36:33.989Z,101337.31
2022-11-07T20:39:03.466Z,101335.97
2022-11-07T20:41:31.998Z,101342.66
2022-11-07T20:44:03.932Z,101347.00
2022-11-07T20:46:33.285Z,101353.16
2022-11-07T20:49:01.780Z,101359.66
2022-11-07T20:51:30.148Z,101312.97
2022-11-07T20:54:00.236Z,101367.03
2022-11-07T20:56:29.942Z,101368.03
2022-11-07T20:58:59.138Z,101364.75
2022-11-07T21:01:36.227Z,101367.31
2022-11-07T21:04:05.217Z,101362.03
2022-11-07T21:06:33.662Z,101365.16
2022-11-07T21:09:03.729Z,101374.31
2022-11-07T21:11:32.268Z,101378.81
2022-11-07T21:14:00.676Z,101381.97
2022-11-07T21:16:29.647Z,101388.16
2022-11-07T21:18:58.046Z,101380.16
2022-11-07T21:21:28.616Z,101365.97
2022-11-07T21:23:58.734Z,101392.13
2022-11-07T21:26:31.685Z,101378.91
2022-11-07T21:29:00.676Z,101385.56
2022-11-07T21:31:33.251Z,101347.34
2022-11-07T21:34:01.502Z,101379.22
2022-11-07T21:36:31.575Z,101380.59
2022-11-07T21:39:01.394Z,101384.22
2022-11-07T21:41:31.946Z,101354.72
2022-11-07T21:44:00.671Z,101378.41
2022-11-07T21:46:30.524Z,101375.25
2022-11-07T21:49:00.117Z,101353.66
2022-11-07T21:51:30.659Z,101340.78
2022-11-07T21:54:00.157Z,101378.41
2022-11-07T21:56:31.582Z,101372.91
2022-11-07T21:59:01.775Z,101372.16
2022-11-07T22:01:35.111Z,101363.56
2022-11-07T22:04:07.502Z,101368.94
2022-11-07T22:06:38.302Z,101364.38
2022-11-07T22:09:07.846Z,101367.03
2022-11-07T22:11:38.937Z,101352.25
2022-11-07T22:14:07.271Z,101362.66
2022-11-07T22:16:36.284Z,101373.22
2022-11-07T22:19:09.711Z,101359.59
2022-11-07T22:21:40.804Z,101365.56
2022-11-07T22:24:09.717Z,101355.38
2022-11-07T22:26:39.439Z,101359.13
2022-11-07T22:29:07.645Z,101357.75
2022-11-07T22:31:36.392Z,101364.66
2022-11-07T22:34:04.695Z,101373.09
2022-11-07T22:36:32.887Z,101373.09
2022-11-07T22:39:00.995Z,101365.09
2022-11-07T22:41:29.536Z,101370.84
2022-11-07T22:43:59.743Z,101367.97
2022-11-07T22:46:29.668Z,101367.81
2022-11-07T22:48:59.024Z,101364.16
2022-11-07T22:51:29.123Z,101326.25
2022-11-07T22:53:59.065Z,101361.66
2022-11-07T22:56:27.796Z,101352.50
2022-11-07T22:58:56.242Z,101345.16
2022-11-07T23:01:31.139Z,101342.03
2022-11-07T23:04:00.230Z,101337.47
2022-11-07T23:06:29.982Z,101333.00
2022-11-07T23:09:00.296Z,101325.13
2022-11-07T23:11:47.603Z,101323.09
2022-11-07T23:14:18.783Z,101290.94
2022-11-07T23:16:50.064Z,101323.59
2022-11-07T23:19:20.907Z,101318.53
2022-11-07T23:21:49.485Z,101312.59
2022-11-07T23:24:18.267Z,101291.03
2022-11-07T23:26:46.541Z,101311.06
2022-11-07T23:29:19.462Z,101327.94
2022-11-07T23:31:50.260Z,101326.88
2022-11-07T23:34:19.791Z,101294.47
2022-11-07T23:36:50.699Z,101323.38
2022-11-07T23:39:20.720Z,101259.94
2022-11-07T23:41:49.070Z,101322.03
2022-11-07T23:44:17.318Z,101317.31
2022-11-07T23:47:03.556Z,101326.91
2022-11-07T23:49:50.336Z,101321.56
2022-11-07T23:52:19.339Z,101328.59
2022-11-07T23:55:04.911Z,101330.91
2022-11-07T23:57:55.530Z,101323.66
